Time,TemperatureF,DewpointF,PressureIn,WindDirection,WindDirectionDegrees,WindSpeedMPH,WindSpeedGustMPH,Humidity,HourlyPrecipIn,Conditions,Clouds,dailyrainin,SoftwareType,DateUTC
2013-09-02 00:01:00,68.7,60.8,29.57,North,0,0.0,0.0,76,0.00,,,0.00,WUHU216HW,2013-09-02 05:01:00,
2013-09-02 00:06:00,68.7,60.8,29.57,North,0,0.0,0.0,76,0.00,,,0.00,WUHU216HW,2013-09-02 05:06:00,
2013-09-02 00:11:00,68.3,60.8,29.57,NNW,338,1.7,1.7,77,0.00,,,0.00,WUHU216HW,2013-09-02 05:11:00,
2013-09-02 00:16:00,68.3,60.8,29.57,NNE,23,0.0,1.7,77,0.00,,,0.00,WUHU216HW,2013-09-02 05:16:00,
2013-09-02 00:21:00,68.1,60.7,29.57,NNW,338,0.0,1.3,77,0.00,,,0.00,WUHU216HW,2013-09-02 05:21:00,
2013-09-02 00:26:00,68.1,60.7,29.56,NNE,23,1.5,1.5,77,0.00,,,0.00,WUHU216HW,2013-09-02 05:26:00,
2013-09-02 00:31:00,68.0,60.5,29.57,NE,45,0.0,1.5,77,0.00,,,0.00,WUHU216HW,2013-09-02 05:31:00,
2013-09-02 00:36:00,67.8,60.3,29.57,NW,315,0.0,0.0,77,0.00,,,0.00,WUHU216HW,2013-09-02 05:36:00,
2013-09-02 00:41:00,67.8,60.3,29.56,NW,315,0.0,0.0,77,0.00,,,0.00,WUHU216HW,2013-09-02 05:41:00,
2013-09-02 00:46:00,67.6,60.2,29.57,NNW,338,0.0,0.0,77,0.00,,,0.00,WUHU216HW,2013-09-02 05:46:00,
2013-09-02 00:51:00,67.6,60.5,29.57,North,0,0.0,0.0,78,0.00,,,0.00,WUHU216HW,2013-09-02 05:51:00,
2013-09-02 00:56:00,67.6,60.5,29.57,NNW,338,0.0,0.0,78,0.00,,,0.00,WUHU216HW,2013-09-02 05:56:00,
2013-09-02 01:01:00,67.2,60.2,29.57,NNW,338,0.0,0.0,78,0.00,,,0.00,WUHU216HW,2013-09-02 06:01:00,
2013-09-02 01:06:00,67.2,60.2,29.57,North,0,0.0,0.0,78,0.00,,,0.00,WUHU216HW,2013-09-02 06:06:00,
2013-09-02 01:11:00,67.2,60.2,29.57,North,0,0.0,0.0,78,0.00,,,0.00,WUHU216HW,2013-09-02 06:11:00,
2013-09-02 01:16:00,67.1,60.0,29.57,North,0,1.5,1.5,78,0.00,,,0.00,WUHU216HW,2013-09-02 06:16:00,
2013-09-02 01:21:00,67.1,60.0,29.57,NNW,338,0.0,1.5,78,0.00,,,0.00,WUHU216HW,2013-09-02 06:21:00,
2013-09-02 01:26:00,66.9,59.8,29.57,NNW,338,0.0,1.5,78,0.00,,,0.00,WUHU216HW,2013-09-02 06:26:00,
2013-09-02 01:31:00,66.7,60.0,29.57,North,0,0.0,2.0,79,0.00,,,0.00,WUHU216HW,2013-09-02 06:31:00,
2013-09-02 01:36:00,66.7,60.0,29.57,North,0,0.0,2.0,79,0.00,,,0.00,WUHU216HW,2013-09-02 06:36:00,
2013-09-02 01:41:00,66.7,60.0,29.57,NNE,23,0.0,0.0,79,0.00,,,0.00,WUHU216HW,2013-09-02 06:41:00,
2013-09-02 01:46:00,66.7,60.0,29.57,NNW,338,0.0,0.0,79,0.00,,,0.00,WUHU216HW,2013-09-02 06:46:00,
2013-09-02 01:51:00,66.5,59.8,29.57,North,0,0.0,0.0,79,0.00,,,0.00,WUHU216HW,2013-09-02 06:51:00,
2013-09-02 01:56:00,66.5,59.8,29.57,NNW,338,0.0,0.0,79,0.00,,,0.00,WUHU216HW,2013-09-02 06:56:00,
2013-09-02 02:01:00,66.3,59.7,29.57,NNW,338,0.0,0.0,79,0.00,,,0.00,WUHU216HW,2013-09-02 07:01:00,
2013-09-02 02:06:00,66.3,59.7,29.57,North,0,0.0,0.0,79,0.00,,,0.00,WUHU216HW,2013-09-02 07:06:00,
2013-09-02 02:11:00,66.3,59.7,29.56,NNW,338,0.0,0.0,79,0.00,,,0.00,WUHU216HW,2013-09-02 07:11:00,
2013-09-02 02:16:00,66.2,59.5,29.56,NNW,338,0.0,0.0,79,0.00,,,0.00,WUHU216HW,2013-09-02 07:16:00,
2013-09-02 02:21:00,66.3,59.7,29.56,NNE,23,0.0,0.0,79,0.00,,,0.00,WUHU216HW,2013-09-02 07:21:00,
2013-09-02 02:26:00,66.3,59.7,29.56,North,0,0.0,0.0,79,0.00,,,0.00,WUHU216HW,2013-09-02 07:26:00,
2013-09-02 02:31:00,66.3,59.7,29.56,North,0,0.0,2.4,79,0.00,,,0.00,WUHU216HW,2013-09-02 07:31:00,
2013-09-02 02:36:00,66.3,59.7,29.57,NNW,338,0.0,2.4,79,0.00,,,0.00,WUHU216HW,2013-09-02 07:36:00,
2013-09-02 02:41:00,66.3,59.7,29.57,North,0,0.0,0.0,79,0.00,,,0.00,WUHU216HW,2013-09-02 07:41:00,
2013-09-02 02:46:00,66.2,59.5,29.57,NNW,338,0.0,0.0,79,0.00,,,0.00,WUHU216HW,2013-09-02 07:46:00,
2013-09-02 02:51:00,66.2,59.5,29.57,NNE,23,0.0,0.0,79,0.00,,,0.00,WUHU216HW,2013-09-02 07:51:00,
2013-09-02 02:56:00,66.0,59.3,29.57,NNE,23,0.0,0.0,79,0.00,,,0.00,WUHU216HW,2013-09-02 07:56:00,
2013-09-02 03:01:00,66.0,59.3,29.58,NNE,23,0.0,0.0,79,0.00,,,0.00,WUHU216HW,2013-09-02 08:01:00,
2013-09-02 03:06:00,66.0,59.3,29.58,NNE,23,0.0,0.0,79,0.00,,,0.00,WUHU216HW,2013-09-02 08:06:00,
2013-09-02 03:11:00,65.8,59.1,29.58,NNW,338,0.0,0.0,79,0.00,,,0.00,WUHU216HW,2013-09-02 08:11:00,
2013-09-02 03:16:00,65.4,58.8,29.58,NNW,338,0.0,0.0,79,0.00,,,0.00,WUHU216HW,2013-09-02 08:16:00,
2013-09-02 03:21:00,65.3,59.0,29.58,NNW,338,0.0,0.0,80,0.00,,,0.00,WUHU216HW,2013-09-02 08:21:00,
2013-09-02 03:26:00,65.3,59.3,29.58,NNW,338,0.0,2.4,81,0.00,,,0.00,WUHU216HW,2013-09-02 08:26:00,
2013-09-02 03:31:00,65.1,59.1,29.58,NNW,338,0.0,2.4,81,0.00,,,0.00,WUHU216HW,2013-09-02 08:31:00,
2013-09-02 03:36:00,65.1,59.1,29.58,NNW,338,0.0,0.0,81,0.00,,,0.00,WUHU216HW,2013-09-02 08:36:00,
2013-09-02 03:41:00,65.1,59.1,29.58,NNW,338,0.0,0.0,81,0.00,,,0.00,WUHU216HW,2013-09-02 08:41:00,
2013-09-02 03:46:00,64.9,58.9,29.58,NNW,338,0.0,0.0,81,0.00,,,0.00,WUHU216HW,2013-09-02 08:46:00,
2013-09-02 03:51:00,64.9,58.9,29.58,North,0,0.0,0.0,81,0.00,,,0.00,WUHU216HW,2013-09-02 08:51:00,
2013-09-02 04:02:00,64.5,58.6,29.58,NNW,338,0.0,0.0,81,0.00,,,0.00,WUHU216HW,2013-09-02 09:02:00,
2013-09-02 04:07:00,64.5,58.6,29.59,NNW,338,0.0,0.0,81,0.00,,,0.00,WUHU216HW,2013-09-02 09:07:00,
2013-09-02 04:12:00,64.2,58.6,29.58,NNW,338,0.0,0.0,82,0.00,,,0.00,WUHU216HW,2013-09-02 09:12:00,
2013-09-02 04:17:00,64.2,58.6,29.58,North,0,0.0,0.0,82,0.00,,,0.00,WUHU216HW,2013-09-02 09:17:00,
2013-09-02 04:22:00,64.2,58.9,29.58,NNW,338,0.0,2.2,83,0.00,,,0.00,WUHU216HW,2013-09-02 09:22:00,
2013-09-02 04:27:00,64.2,58.9,29.59,North,0,0.0,2.2,83,0.00,,,0.00,WUHU216HW,2013-09-02 09:27:00,
2013-09-02 04:32:00,64.2,58.9,29.58,North,0,0.0,0.0,83,0.00,,,0.00,WUHU216HW,2013-09-02 09:32:00,
2013-09-02 04:37:00,64.0,58.7,29.59,North,0,0.0,0.0,83,0.00,,,0.00,WUHU216HW,2013-09-02 09:37:00,
2013-09-02 04:42:00,63.8,58.5,29.59,North,0,0.0,0.0,83,0.00,,,0.00,WUHU216HW,2013-09-02 09:42:00,
2013-09-02 04:47:00,63.6,58.4,29.59,NNW,338,0.0,0.0,83,0.00,,,0.00,WUHU216HW,2013-09-02 09:47:00,
2013-09-02 04:52:00,63.6,58.7,29.58,North,0,0.0,1.5,83,0.00,,,0.00,WUHU216HW,2013-09-02 09:52:00,
2013-09-02 04:57:00,63.6,58.7,29.59,North,0,0.0,1.5,84,0.00,,,0.00,WUHU216HW,2013-09-02 09:57:00,
2013-09-02 05:02:00,63.5,58.5,29.59,North,0,0.0,0.0,84,0.00,,,0.00,WUHU216HW,2013-09-02 10:02:00,
2013-09-02 05:07:00,63.3,58.3,29.59,North,0,0.0,0.0,84,0.00,,,0.00,WUHU216HW,2013-09-02 10:07:00,
2013-09-02 05:12:00,63.3,58.3,29.59,North,0,0.0,0.0,84,0.00,,,0.00,WUHU216HW,2013-09-02 10:12:00,
2013-09-02 05:18:00,63.3,58.3,29.59,North,0,0.0,0.0,84,0.00,,,0.00,WUHU216HW,2013-09-02 10:18:00,
2013-09-02 05:23:00,63.3,58.3,29.59,NNE,23,0.0,0.0,84,0.00,,,0.00,WUHU216HW,2013-09-02 10:23:00,
2013-09-02 05:28:00,63.1,58.2,29.60,North,0,0.0,0.0,84,0.00,,,0.00,WUHU216HW,2013-09-02 10:28:00,
2013-09-02 05:32:00,63.1,58.2,29.60,NNW,338,0.0,0.0,84,0.00,,,0.00,WUHU216HW,2013-09-02 10:32:00,
2013-09-02 05:38:00,63.1,58.2,29.60,NNW,338,0.0,0.0,84,0.00,,,0.00,WUHU216HW,2013-09-02 10:38:00,
2013-09-02 05:43:00,62.9,58.0,29.60,NNW,338,0.0,0.0,84,0.00,,,0.00,WUHU216HW,2013-09-02 10:43:00,
2013-09-02 05:48:00,62.9,58.0,29.60,North,0,0.0,0.0,84,0.00,,,0.00,WUHU216HW,2013-09-02 10:48:00,
2013-09-02 05:53:00,62.7,57.8,29.60,North,0,0.0,0.0,84,0.00,,,0.00,WUHU216HW,2013-09-02 10:53:00,
2013-09-02 05:58:00,62.7,58.1,29.60,North,0,0.0,0.0,85,0.00,,,0.00,WUHU216HW,2013-09-02 10:58:00,
2013-09-02 06:02:00,62.6,58.0,29.60,NNE,23,0.0,0.0,85,0.00,,,0.00,WUHU216HW,2013-09-02 11:02:00,
2013-09-02 06:08:00,62.4,57.8,29.60,North,0,0.0,0.0,85,0.00,,,0.00,WUHU216HW,2013-09-02 11:08:00,
2013-09-02 06:13:00,62.4,57.8,29.60,North,0,0.0,0.0,85,0.00,,,0.00,WUHU216HW,2013-09-02 11:13:00,
2013-09-02 06:18:00,62.4,57.8,29.61,North,0,0.0,0.0,85,0.00,,,0.00,WUHU216HW,2013-09-02 11:18:00,
2013-09-02 06:23:00,62.4,57.8,29.61,NNW,338,0.0,0.0,85,0.00,,,0.00,WUHU216HW,2013-09-02 11:23:00,
2013-09-02 06:28:00,62.2,57.6,29.61,NNW,338,0.0,0.0,85,0.00,,,0.00,WUHU216HW,2013-09-02 11:28:00,
2013-09-02 06:32:00,62.2,57.6,29.61,NNW,338,0.0,0.0,85,0.00,,,0.00,WUHU216HW,2013-09-02 11:32:00,
2013-09-02 06:38:00,62.2,57.6,29.61,NE,45,0.0,0.0,85,0.00,,,0.00,WUHU216HW,2013-09-02 11:38:00,
2013-09-02 06:42:00,62.0,57.4,29.62,NE,45,0.0,0.0,85,0.00,,,0.00,WUHU216HW,2013-09-02 11:42:00,
2013-09-02 06:47:00,62.2,57.6,29.62,NE,45,0.0,0.0,85,0.00,,,0.00,WUHU216HW,2013-09-02 11:47:00,
2013-09-02 06:52:00,62.0,57.4,29.62,NE,45,0.0,0.0,85,0.00,,,0.00,WUHU216HW,2013-09-02 11:52:00,
2013-09-02 06:57:00,61.8,57.3,29.62,NE,45,0.0,0.0,85,0.00,,,0.00,WUHU216HW,2013-09-02 11:57:00,
2013-09-02 07:02:00,61.8,57.3,29.63,North,0,0.0,0.0,85,0.00,,,0.00,WUHU216HW,2013-09-02 12:02:00,
2013-09-02 07:07:00,61.8,57.6,29.63,North,0,0.0,0.0,86,0.00,,,0.00,WUHU216HW,2013-09-02 12:07:00,
2013-09-02 07:12:00,61.8,57.6,29.63,North,0,0.0,0.0,86,0.00,,,0.00,WUHU216HW,2013-09-02 12:12:00,
2013-09-02 07:17:00,61.8,57.6,29.63,North,0,0.0,0.0,86,0.00,,,0.00,WUHU216HW,2013-09-02 12:17:00,
2013-09-02 07:22:00,61.8,57.6,29.63,North,0,0.0,0.0,86,0.00,,,0.00,WUHU216HW,2013-09-02 12:22:00,
2013-09-02 07:27:00,61.8,57.6,29.63,North,0,0.0,0.0,86,0.00,,,0.00,WUHU216HW,2013-09-02 12:27:00,
2013-09-02 07:32:00,62.0,57.8,29.63,North,0,0.0,0.0,86,0.00,,,0.00,WUHU216HW,2013-09-02 12:32:00,
2013-09-02 07:37:00,62.0,57.8,29.63,North,0,0.0,0.0,86,0.00,,,0.00,WUHU216HW,2013-09-02 12:37:00,
2013-09-02 07:43:00,62.0,57.8,29.63,North,0,0.0,0.0,86,0.00,,,0.00,WUHU216HW,2013-09-02 12:43:00,
2013-09-02 07:48:00,62.2,57.9,29.63,NW,315,0.0,0.0,86,0.00,,,0.00,WUHU216HW,2013-09-02 12:48:00,
2013-09-02 07:53:00,62.4,58.1,29.63,NNW,338,0.0,0.0,86,0.00,,,0.00,WUHU216HW,2013-09-02 12:53:00,
2013-09-02 07:58:00,62.4,58.1,29.64,NNW,338,0.0,0.0,86,0.00,,,0.00,WUHU216HW,2013-09-02 12:58:00,
2013-09-02 08:03:00,62.7,58.5,29.64,North,0,0.0,0.0,86,0.00,,,0.00,WUHU216HW,2013-09-02 13:03:00,
2013-09-02 08:08:00,63.1,58.8,29.64,NNW,338,0.0,0.0,86,0.00,,,0.00,WUHU216HW,2013-09-02 13:08:00,
2013-09-02 08:13:00,63.3,59.0,29.65,NNW,338,0.0,0.0,86,0.00,,,0.00,WUHU216HW,2013-09-02 13:13:00,
2013-09-02 08:18:00,63.5,59.4,29.64,NNE,23,0.0,0.0,86,0.00,,,0.00,WUHU216HW,2013-09-02 13:18:00,
2013-09-02 08:23:00,64.0,59.7,29.64,North,0,0.0,0.0,86,0.00,,,0.00,WUHU216HW,2013-09-02 13:23:00,
2013-09-02 08:28:00,64.2,59.9,29.65,NNW,338,4.0,4.0,86,0.00,,,0.00,WUHU216HW,2013-09-02 13:28:00,
2013-09-02 08:33:00,64.5,59.9,29.64,NE,45,0.0,4.0,86,0.00,,,0.00,WUHU216HW,2013-09-02 13:33:00,
2013-09-02 08:38:00,64.7,60.1,29.64,ESE,113,0.0,4.0,85,0.00,,,0.00,WUHU216HW,2013-09-02 13:38:00,
2013-09-02 08:43:00,64.9,60.3,29.64,NW,315,1.1,4.0,85,0.00,,,0.00,WUHU216HW,2013-09-02 13:43:00,
2013-09-02 08:48:00,65.3,60.3,29.65,SSE,158,0.0,2.4,85,0.00,,,0.00,WUHU216HW,2013-09-02 13:48:00,
2013-09-02 08:53:00,65.4,60.4,29.65,NNE,23,0.4,1.1,84,0.00,,,0.00,WUHU216HW,2013-09-02 13:53:00,
2013-09-02 08:58:00,66.0,61.0,29.65,South,180,0.0,0.4,84,0.00,,,0.00,WUHU216HW,2013-09-02 13:58:00,
2013-09-02 09:03:00,66.0,60.6,29.65,WNW,293,0.0,0.4,83,0.00,,,0.00,WUHU216HW,2013-09-02 14:03:00,
2013-09-02 09:08:00,66.5,61.2,29.65,NE,45,0.0,0.0,83,0.00,,,0.00,WUHU216HW,2013-09-02 14:08:00,
2013-09-02 09:13:00,66.7,61.0,29.65,SE,135,0.0,0.0,82,0.00,,,0.00,WUHU216HW,2013-09-02 14:13:00,
2013-09-02 09:18:00,66.9,60.9,29.65,SW,225,0.0,0.0,81,0.00,,,0.00,WUHU216HW,2013-09-02 14:18:00,
2013-09-02 09:23:00,67.1,60.8,29.65,East,90,0.0,0.0,80,0.00,,,0.00,WUHU216HW,2013-09-02 14:23:00,
2013-09-02 09:27:00,67.6,61.3,29.65,North,0,1.3,1.3,80,0.00,,,0.00,WUHU216HW,2013-09-02 14:27:00,
2013-09-02 09:32:00,67.8,61.5,29.65,NE,45,0.0,1.3,80,0.00,,,0.00,WUHU216HW,2013-09-02 14:32:00,
2013-09-02 09:37:00,68.1,61.4,29.65,East,90,0.0,1.3,79,0.00,,,0.00,WUHU216HW,2013-09-02 14:37:00,
2013-09-02 09:43:00,68.3,61.6,29.65,East,90,0.0,0.0,79,0.00,,,0.00,WUHU216HW,2013-09-02 14:43:00,
2013-09-02 09:47:00,68.7,61.5,29.66,North,0,2.4,2.4,78,0.00,,,0.00,WUHU216HW,2013-09-02 14:47:00,
2013-09-02 09:53:00,68.9,61.7,29.66,East,90,0.0,2.4,78,0.00,,,0.00,WUHU216HW,2013-09-02 14:53:00,
2013-09-02 09:58:00,69.0,61.9,29.66,NNW,338,0.0,0.0,78,0.00,,,0.00,WUHU216HW,2013-09-02 14:58:00,
2013-09-02 10:03:00,69.4,61.8,29.66,NE,45,0.0,0.0,77,0.00,,,0.00,WUHU216HW,2013-09-02 15:03:00,
2013-09-02 10:08:00,69.6,62.0,29.66,East,90,0.0,2.6,77,0.00,,,0.00,WUHU216HW,2013-09-02 15:08:00,
2013-09-02 10:13:00,70.1,62.1,29.66,NNE,23,1.5,2.6,76,0.00,,,0.00,WUHU216HW,2013-09-02 15:13:00,
2013-09-02 10:18:00,70.3,62.3,29.66,NNW,338,4.0,4.0,76,0.00,,,0.00,WUHU216HW,2013-09-02 15:18:00,
2013-09-02 10:23:00,70.7,62.5,29.66,NNE,23,0.0,4.0,75,0.00,,,0.00,WUHU216HW,2013-09-02 15:23:00,
2013-09-02 10:28:00,71.2,62.8,29.66,WNW,293,0.0,1.3,75,0.00,,,0.00,WUHU216HW,2013-09-02 15:28:00,
2013-09-02 10:33:00,71.4,62.6,29.66,SE,135,2.9,2.9,74,0.00,,,0.00,WUHU216HW,2013-09-02 15:33:00,
2013-09-02 10:38:00,71.9,63.2,29.66,NNE,23,0.0,2.9,74,0.00,,,0.00,WUHU216HW,2013-09-02 15:38:00,
2013-09-02 10:43:00,72.3,62.8,29.66,ENE,68,1.7,1.7,72,0.00,,,0.00,WUHU216HW,2013-09-02 15:43:00,
2013-09-02 10:48:00,72.6,63.1,29.66,North,0,0.0,1.7,72,0.00,,,0.00,WUHU216HW,2013-09-02 15:48:00,
2013-09-02 10:53:00,72.8,63.3,29.66,North,0,0.8,1.7,72,0.00,,,0.00,WUHU216HW,2013-09-02 15:53:00,
2013-09-02 10:58:00,73.4,63.1,29.66,East,90,0.0,0.8,70,0.00,,,0.00,WUHU216HW,2013-09-02 15:58:00,
2013-09-02 11:03:00,73.7,63.4,29.66,North,0,1.5,1.5,70,0.00,,,0.00,WUHU216HW,2013-09-02 16:03:00,
2013-09-02 11:08:00,73.9,63.1,29.66,NNW,338,2.0,6.0,69,0.00,,,0.00,WUHU216HW,2013-09-02 16:08:00,
2013-09-02 11:13:00,74.1,63.7,29.66,NW,315,0.0,6.0,70,0.00,,,0.00,WUHU216HW,2013-09-02 16:13:00,
2013-09-02 11:18:00,74.4,63.2,29.66,NNW,338,6.4,7.8,68,0.00,,,0.00,WUHU216HW,2013-09-02 16:18:00,
2013-09-02 11:23:00,74.6,63.2,29.66,West,270,2.2,7.8,68,0.00,,,0.00,WUHU216HW,2013-09-02 16:23:00,
2013-09-02 11:28:00,74.8,63.1,29.66,East,90,2.0,3.1,67,0.00,,,0.00,WUHU216HW,2013-09-02 16:28:00,
2013-09-02 11:33:00,75.0,63.2,29.66,NNW,338,0.0,3.1,67,0.00,,,0.00,WUHU216HW,2013-09-02 16:33:00,
2013-09-02 11:38:00,75.3,63.6,29.66,North,0,2.9,2.9,67,0.00,,,0.00,WUHU216HW,2013-09-02 16:38:00,
2013-09-02 11:43:00,75.7,63.9,29.66,East,90,0.0,6.0,67,0.00,,,0.00,WUHU216HW,2013-09-02 16:43:00,
2013-09-02 11:48:00,75.7,63.1,29.66,NNW,338,11.4,11.4,65,0.00,,,0.00,WUHU216HW,2013-09-02 16:48:00,
2013-09-02 11:53:00,75.9,63.2,29.66,North,0,4.2,11.4,66,0.00,,,0.00,WUHU216HW,2013-09-02 16:53:00,
2013-09-02 11:58:00,76.4,64.2,29.66,NNE,23,0.0,4.2,66,0.00,,,0.00,WUHU216HW,2013-09-02 16:58:00,
2013-09-02 12:03:00,76.6,63.9,29.66,NNW,338,1.1,4.2,65,0.00,,,0.00,WUHU216HW,2013-09-02 17:03:00,
2013-09-02 12:08:00,77.0,64.1,29.66,WNW,293,3.5,3.5,65,0.00,,,0.00,WUHU216HW,2013-09-02 17:08:00,
2013-09-02 12:13:00,76.8,63.2,29.66,NNW,338,0.0,4.4,63,0.00,,,0.00,WUHU216HW,2013-09-02 17:13:00,
2013-09-02 12:18:00,76.8,62.7,29.66,NNW,338,8.2,8.2,62,0.00,,,0.00,WUHU216HW,2013-09-02 17:18:00,
2013-09-02 12:23:00,76.8,62.3,29.66,NW,315,2.9,8.2,61,0.00,,,0.00,WUHU216HW,2013-09-02 17:23:00,
2013-09-02 12:28:00,77.1,63.1,29.65,North,0,5.8,7.8,62,0.00,,,0.00,WUHU216HW,2013-09-02 17:28:00,
2013-09-02 12:33:00,77.1,62.6,29.65,NNW,338,6.4,6.4,61,0.00,,,0.00,WUHU216HW,2013-09-02 17:33:00,
2013-09-02 12:38:00,77.1,62.6,29.65,NE,45,0.0,6.4,61,0.00,,,0.00,WUHU216HW,2013-09-02 17:38:00,
2013-09-02 12:43:00,77.5,63.0,29.65,ESE,113,0.0,4.2,61,0.00,,,0.00,WUHU216HW,2013-09-02 17:43:00,
2013-09-02 12:48:00,77.7,63.2,29.65,NNW,338,0.6,2.2,61,0.00,,,0.00,WUHU216HW,2013-09-02 17:48:00,
2013-09-02 12:53:00,77.5,62.6,29.65,NNW,338,6.9,6.9,60,0.00,,,0.00,WUHU216HW,2013-09-02 17:53:00,
2013-09-02 12:58:00,77.7,62.7,29.65,NE,45,0.0,6.9,60,0.00,,,0.00,WUHU216HW,2013-09-02 17:58:00,
2013-09-02 13:03:00,77.9,62.9,29.65,NNW,338,6.0,6.9,60,0.00,,,0.00,WUHU216HW,2013-09-02 18:03:00,
2013-09-02 13:08:00,77.7,61.9,29.65,NNE,23,8.9,8.9,58,0.00,,,0.00,WUHU216HW,2013-09-02 18:08:00,
2013-09-02 13:13:00,77.7,62.7,29.65,ENE,68,2.4,8.9,60,0.00,,,0.00,WUHU216HW,2013-09-02 18:13:00,
2013-09-02 13:18:00,77.9,62.9,29.65,North,0,0.0,8.9,60,0.00,,,0.00,WUHU216HW,2013-09-02 18:18:00,
2013-09-02 13:23:00,78.4,62.9,29.64,NNE,23,0.0,2.4,59,0.00,,,0.00,WUHU216HW,2013-09-02 18:23:00,
2013-09-02 13:28:00,78.6,62.6,29.65,North,0,0.0,4.4,58,0.00,,,0.00,WUHU216HW,2013-09-02 18:28:00,
2013-09-02 13:33:00,78.8,63.3,29.65,NW,315,5.8,5.8,59,0.00,,,0.00,WUHU216HW,2013-09-02 18:33:00,
2013-09-02 13:38:00,78.6,62.1,29.65,North,0,4.4,5.8,57,0.00,,,0.00,WUHU216HW,2013-09-02 18:38:00,
2013-09-02 13:43:00,78.6,62.1,29.64,NNE,23,0.0,10.5,57,0.00,,,0.00,WUHU216HW,2013-09-02 18:43:00,
2013-09-02 13:48:00,78.6,62.6,29.64,NE,45,0.0,10.5,58,0.00,,,0.00,WUHU216HW,2013-09-02 18:48:00,
2013-09-02 13:53:00,78.9,62.9,29.64,ENE,68,0.0,2.9,58,0.00,,,0.00,WUHU216HW,2013-09-02 18:53:00,
2013-09-02 13:58:00,79.3,62.2,29.64,WSW,248,1.5,4.0,56,0.00,,,0.00,WUHU216HW,2013-09-02 18:58:00,
2013-09-02 14:03:00,79.3,62.2,29.64,NNW,338,2.6,4.0,56,0.00,,,0.00,WUHU216HW,2013-09-02 19:03:00,
2013-09-02 14:08:00,79.5,62.9,29.64,North,0,3.8,6.7,57,0.00,,,0.00,WUHU216HW,2013-09-02 19:08:00,
2013-09-02 14:13:00,79.8,62.7,29.64,SE,135,0.0,6.7,56,0.00,,,0.00,WUHU216HW,2013-09-02 19:13:00,
2013-09-02 14:18:00,79.8,62.7,29.64,NNW,338,6.4,6.4,56,0.00,,,0.00,WUHU216HW,2013-09-02 19:18:00,
2013-09-02 14:23:00,80.2,63.5,29.64,NW,315,0.0,6.4,57,0.00,,,0.00,WUHU216HW,2013-09-02 19:23:00,
2013-09-02 14:28:00,80.4,63.2,29.64,SW,225,0.0,3.3,56,0.00,,,0.00,WUHU216HW,2013-09-02 19:28:00,
2013-09-02 14:33:00,80.2,63.0,29.63,NW,315,0.0,0.0,56,0.00,,,0.00,WUHU216HW,2013-09-02 19:33:00,
2013-09-02 14:38:00,80.4,63.7,29.63,NNW,338,3.3,3.3,57,0.00,,,0.00,WUHU216HW,2013-09-02 19:38:00,
2013-09-02 14:43:00,80.7,63.5,29.63,North,0,3.3,3.3,56,0.00,,,0.00,WUHU216HW,2013-09-02 19:43:00,
2013-09-02 14:48:00,80.7,64.0,29.63,ENE,68,0.0,3.3,57,0.00,,,0.00,WUHU216HW,2013-09-02 19:48:00,
2013-09-02 14:53:00,81.1,63.8,29.63,WSW,248,0.0,3.5,56,0.00,,,0.00,WUHU216HW,2013-09-02 19:53:00,
2013-09-02 14:58:00,81.3,64.5,29.63,WNW,293,0.0,3.5,57,0.00,,,0.00,WUHU216HW,2013-09-02 19:58:00,
2013-09-02 15:03:00,81.5,63.1,29.63,NNE,23,3.8,3.8,54,0.00,,,0.00,WUHU216HW,2013-09-02 20:03:00,
2013-09-02 15:08:00,81.6,63.3,29.63,NNW,338,0.0,3.8,54,0.00,,,0.00,WUHU216HW,2013-09-02 20:08:00,
2013-09-02 15:13:00,81.8,63.4,29.63,NNW,338,4.9,4.9,54,0.00,,,0.00,WUHU216HW,2013-09-02 20:13:00,
2013-09-02 15:18:00,81.6,62.2,29.63,West,270,3.3,5.8,52,0.00,,,0.00,WUHU216HW,2013-09-02 20:18:00,
2013-09-02 15:23:00,81.3,62.4,29.62,North,0,0.0,5.8,53,0.00,,,0.00,WUHU216HW,2013-09-02 20:23:00,
2013-09-02 15:28:00,81.1,62.3,29.62,NW,315,6.0,6.0,53,0.00,,,0.00,WUHU216HW,2013-09-02 20:28:00,
2013-09-02 15:33:00,81.3,62.9,29.62,WNW,293,0.0,6.0,54,0.00,,,0.00,WUHU216HW,2013-09-02 20:33:00,
2013-09-02 15:38:00,81.3,61.9,29.62,NE,45,1.5,7.8,52,0.00,,,0.00,WUHU216HW,2013-09-02 20:38:00,
2013-09-02 15:43:00,81.5,62.6,29.62,SSW,203,0.0,7.8,53,0.00,,,0.00,WUHU216HW,2013-09-02 20:43:00,
2013-09-02 15:48:00,81.6,62.7,29.62,NW,315,0.0,1.5,53,0.00,,,0.00,WUHU216HW,2013-09-02 20:48:00,
2013-09-02 15:53:00,82.0,62.6,29.61,NNW,338,2.9,6.0,52,0.00,,,0.00,WUHU216HW,2013-09-02 20:53:00,
2013-09-02 15:58:00,82.0,63.1,29.61,NNE,23,0.0,9.8,53,0.00,,,0.00,WUHU216HW,2013-09-02 20:58:00,
2013-09-02 16:03:00,82.0,63.1,29.61,WNW,293,2.2,9.8,53,0.00,,,0.00,WUHU216HW,2013-09-02 21:03:00,
2013-09-02 16:08:00,82.2,62.7,29.61,NW,315,0.0,2.2,52,0.00,,,0.00,WUHU216HW,2013-09-02 21:08:00,
2013-09-02 16:13:00,82.2,62.7,29.61,North,0,0.0,3.3,52,0.00,,,0.00,WUHU216HW,2013-09-02 21:13:00,
2013-09-02 16:18:00,82.0,62.6,29.60,North,0,2.9,3.3,52,0.00,,,0.00,WUHU216HW,2013-09-02 21:18:00,
2013-09-02 16:23:00,82.2,62.6,29.60,ENE,68,0.0,2.9,52,0.00,,,0.00,WUHU216HW,2013-09-02 21:23:00,
2013-09-02 16:28:00,82.2,62.7,29.60,SSE,158,0.0,2.6,52,0.00,,,0.00,WUHU216HW,2013-09-02 21:28:00,
2013-09-02 16:33:00,82.2,61.7,29.60,NNE,23,0.0,3.5,50,0.00,,,0.00,WUHU216HW,2013-09-02 21:33:00,
2013-09-02 16:38:00,82.0,62.0,29.60,WNW,293,0.0,3.5,51,0.00,,,0.00,WUHU216HW,2013-09-02 21:38:00,
2013-09-02 16:43:00,82.2,62.7,29.60,North,0,5.1,5.1,52,0.00,,,0.00,WUHU216HW,2013-09-02 21:43:00,
2013-09-02 16:48:00,82.2,62.2,29.60,NNW,338,1.3,5.1,51,0.00,,,0.00,WUHU216HW,2013-09-02 21:48:00,
2013-09-02 16:53:00,82.5,62.5,29.60,North,0,0.0,1.5,51,0.00,,,0.00,WUHU216HW,2013-09-02 21:53:00,
2013-09-02 16:58:00,82.7,62.7,29.60,North,0,3.8,3.8,51,0.00,,,0.00,WUHU216HW,2013-09-02 21:58:00,
2013-09-02 17:03:00,82.9,62.4,29.59,WSW,248,0.0,3.8,50,0.00,,,0.00,WUHU216HW,2013-09-02 22:03:00,
2013-09-02 17:08:00,82.7,62.7,29.59,NE,45,0.0,4.9,51,0.00,,,0.00,WUHU216HW,2013-09-02 22:08:00,
2013-09-02 17:13:00,82.7,62.7,29.59,North,0,0.0,4.9,51,0.00,,,0.00,WUHU216HW,2013-09-02 22:13:00,
2013-09-02 17:18:00,82.7,61.6,29.59,NNW,338,0.0,3.1,49,0.00,,,0.00,WUHU216HW,2013-09-02 22:18:00,
2013-09-02 17:23:00,82.5,61.4,29.59,NNW,338,5.5,5.5,49,0.00,,,0.00,WUHU216HW,2013-09-02 22:23:00,
2013-09-02 17:28:00,82.2,61.7,29.59,NNE,23,0.0,5.5,50,0.00,,,0.00,WUHU216HW,2013-09-02 22:28:00,
2013-09-02 17:33:00,82.2,61.1,29.59,NW,315,5.1,5.5,49,0.00,,,0.00,WUHU216HW,2013-09-02 22:33:00,
2013-09-02 17:38:00,82.0,60.9,29.59,NW,315,1.5,6.9,49,0.00,,,0.00,WUHU216HW,2013-09-02 22:38:00,
2013-09-02 17:43:00,81.8,61.3,29.60,NNW,338,0.0,6.9,50,0.00,,,0.00,WUHU216HW,2013-09-02 22:43:00,
2013-09-02 17:48:00,82.0,60.9,29.59,North,0,1.3,6.0,49,0.00,,,0.00,WUHU216HW,2013-09-02 22:48:00,
2013-09-02 17:53:00,82.0,60.3,29.59,North,0,4.4,6.0,48,0.00,,,0.00,WUHU216HW,2013-09-02 22:53:00,
2013-09-02 17:58:00,81.6,60.6,29.60,NNW,338,4.2,4.4,49,0.00,,,0.00,WUHU216HW,2013-09-02 22:58:00,
2013-09-02 18:03:00,81.8,61.3,29.59,NNE,23,3.3,4.4,50,0.00,,,0.00,WUHU216HW,2013-09-02 23:03:00,
2013-09-02 18:08:00,81.8,61.3,29.60,NNW,338,2.4,4.0,50,0.00,,,0.00,WUHU216HW,2013-09-02 23:08:00,
2013-09-02 18:13:00,82.0,61.5,29.60,SE,135,0.0,2.4,50,0.00,,,0.00,WUHU216HW,2013-09-02 23:13:00,
2013-09-02 18:18:00,82.0,61.5,29.60,NNW,338,0.0,2.4,50,0.00,,,0.00,WUHU216HW,2013-09-02 23:18:00,
2013-09-02 18:23:00,82.2,61.7,29.60,NNW,338,2.9,2.9,50,0.00,,,0.00,WUHU216HW,2013-09-02 23:23:00,
2013-09-02 18:28:00,82.2,61.7,29.60,ENE,68,0.0,2.9,50,0.00,,,0.00,WUHU216HW,2013-09-02 23:28:00,
2013-09-02 18:33:00,82.2,61.1,29.59,SE,135,0.0,4.6,49,0.00,,,0.00,WUHU216HW,2013-09-02 23:33:00,
2013-09-02 18:38:00,82.2,61.7,29.59,North,0,2.2,4.6,49,0.00,,,0.00,WUHU216HW,2013-09-02 23:38:00,
2013-09-02 18:43:00,81.6,60.6,29.59,North,0,0.0,2.2,49,0.00,,,0.00,WUHU216HW,2013-09-02 23:43:00,
2013-09-02 18:48:00,81.6,61.2,29.59,NW,315,0.0,2.2,50,0.00,,,0.00,WUHU216HW,2013-09-02 23:48:00,
2013-09-02 18:53:00,81.3,60.9,29.60,NNW,338,0.0,1.3,50,0.00,,,0.00,WUHU216HW,2013-09-02 23:53:00,
2013-09-02 18:58:00,81.1,60.7,29.60,NNW,338,0.0,1.3,50,0.00,,,0.00,WUHU216HW,2013-09-02 23:58:00,
2013-09-02 19:03:00,80.7,60.4,29.59,North,0,0.0,0.0,50,0.00,,,0.00,WUHU216HW,2013-09-03 00:03:00,
2013-09-02 19:08:00,80.4,60.6,29.59,North,0,0.0,2.4,51,0.00,,,0.00,WUHU216HW,2013-09-03 00:08:00,
2013-09-02 19:13:00,79.8,60.1,29.59,NNW,338,0.0,2.4,51,0.00,,,0.00,WUHU216HW,2013-09-03 00:13:00,
2013-09-02 19:18:00,79.7,60.4,29.59,NNW,338,0.0,0.0,52,0.00,,,0.00,WUHU216HW,2013-09-03 00:18:00,
2013-09-02 19:23:00,79.1,60.0,29.59,NNW,338,0.0,0.0,52,0.00,,,0.00,WUHU216HW,2013-09-03 00:23:00,
2013-09-02 19:28:00,78.6,60.0,29.60,NNW,338,0.0,0.0,53,0.00,,,0.00,WUHU216HW,2013-09-03 00:28:00,
2013-09-02 19:33:00,78.0,60.0,29.60,NNW,338,0.0,0.0,54,0.00,,,0.00,WUHU216HW,2013-09-03 00:33:00,
2013-09-02 19:38:00,77.5,59.5,29.60,NNW,338,0.0,0.0,54,0.00,,,0.00,WUHU216HW,2013-09-03 00:38:00,
2013-09-02 19:43:00,76.8,59.3,29.60,North,0,0.0,0.0,55,0.00,,,0.00,WUHU216HW,2013-09-03 00:43:00,
2013-09-02 19:48:00,76.2,59.2,29.60,North,0,0.0,0.0,55,0.00,,,0.00,WUHU216HW,2013-09-03 00:48:00,
2013-09-02 19:53:00,75.9,59.0,29.60,NNE,23,0.0,0.0,56,0.00,,,0.00,WUHU216HW,2013-09-03 00:53:00,
2013-09-02 19:58:00,75.5,58.7,29.60,NNE,23,0.0,0.0,56,0.00,,,0.00,WUHU216HW,2013-09-03 00:58:00,
2013-09-02 20:03:00,75.0,58.7,29.60,NNE,23,0.0,0.0,57,0.00,,,0.00,WUHU216HW,2013-09-03 01:03:00,
2013-09-02 20:08:00,74.8,59.0,29.60,NNE,23,0.0,0.0,58,0.00,,,0.00,WUHU216HW,2013-09-03 01:08:00,
2013-09-02 20:13:00,74.3,58.5,29.60,North,0,0.0,0.0,58,0.00,,,0.00,WUHU216HW,2013-09-03 01:13:00,
2013-09-02 20:18:00,74.1,58.8,29.60,North,0,0.0,0.0,59,0.00,,,0.00,WUHU216HW,2013-09-03 01:18:00,
2013-09-02 20:23:00,73.7,58.4,29.60,North,0,0.0,0.0,59,0.00,,,0.00,WUHU216HW,2013-09-03 01:23:00,
2013-09-02 20:28:00,73.4,58.6,29.60,NNW,338,0.0,0.0,60,0.00,,,0.00,WUHU216HW,2013-09-03 01:28:00,
2013-09-02 20:33:00,73.2,58.4,29.60,NNW,338,0.0,0.0,60,0.00,,,0.00,WUHU216HW,2013-09-03 01:33:00,
2013-09-02 20:38:00,72.6,58.4,29.60,NNW,338,0.0,0.0,61,0.00,,,0.00,WUHU216HW,2013-09-03 01:38:00,
2013-09-02 20:43:00,72.3,58.1,29.60,NNW,338,0.0,0.0,61,0.00,,,0.00,WUHU216HW,2013-09-03 01:43:00,
2013-09-02 20:48:00,72.3,58.5,29.60,NNW,338,0.0,0.0,62,0.00,,,0.00,WUHU216HW,2013-09-03 01:48:00,
2013-09-02 20:53:00,71.9,58.2,29.61,NNW,338,0.0,0.0,62,0.00,,,0.00,WUHU216HW,2013-09-03 01:53:00,
2013-09-02 20:58:00,71.7,58.4,29.60,NNW,338,0.0,0.0,63,0.00,,,0.00,WUHU216HW,2013-09-03 01:58:00,
2013-09-02 21:03:00,71.4,58.1,29.61,NNW,338,0.0,0.0,63,0.00,,,0.00,WUHU216HW,2013-09-03 02:03:00,
2013-09-02 21:08:00,71.0,58.2,29.61,NNW,338,0.0,0.0,64,0.00,,,0.00,WUHU216HW,2013-09-03 02:08:00,
2013-09-02 21:13:00,70.8,58.0,29.60,NNW,338,0.0,0.0,64,0.00,,,0.00,WUHU216HW,2013-09-03 02:13:00,
2013-09-02 21:18:00,70.5,58.1,29.60,NNW,338,0.0,0.0,65,0.00,,,0.00,WUHU216HW,2013-09-03 02:18:00,
2013-09-02 21:23:00,70.3,57.9,29.61,NNW,338,0.0,0.0,65,0.00,,,0.00,WUHU216HW,2013-09-03 02:23:00,
2013-09-02 21:28:00,70.3,58.3,29.61,NNW,338,0.0,0.0,66,0.00,,,0.00,WUHU216HW,2013-09-03 02:28:00,
2013-09-02 21:33:00,69.9,58.0,29.61,NNW,338,0.0,0.0,66,0.00,,,0.00,WUHU216HW,2013-09-03 02:33:00,
2013-09-02 21:38:00,69.8,58.2,29.61,North,0,0.0,0.0,67,0.00,,,0.00,WUHU216HW,2013-09-03 02:38:00,
2013-09-02 21:43:00,69.6,58.1,29.61,North,0,0.0,0.0,67,0.00,,,0.00,WUHU216HW,2013-09-03 02:43:00,
2013-09-02 21:48:00,69.4,57.9,29.62,NNW,338,0.0,0.0,67,0.00,,,0.00,WUHU216HW,2013-09-03 02:48:00,
2013-09-02 21:53:00,69.2,58.2,29.62,NNE,23,0.0,0.0,68,0.00,,,0.00,WUHU216HW,2013-09-03 02:53:00,
2013-09-02 21:58:00,69.0,58.0,29.62,North,0,0.0,0.0,68,0.00,,,0.00,WUHU216HW,2013-09-03 02:58:00,
2013-09-02 22:03:00,68.9,58.2,29.62,North,0,0.0,0.0,69,0.00,,,0.00,WUHU216HW,2013-09-03 03:03:00,
2013-09-02 22:08:00,68.9,58.2,29.62,NNW,338,0.0,0.0,69,0.00,,,0.00,WUHU216HW,2013-09-03 03:08:00,